createdAt,value
2022-10-11T00:00:09.372Z,18.81
2022-10-11T00:02:35.888Z,18.82
2022-10-11T00:05:02.434Z,18.81
2022-10-11T00:07:28.966Z,18.83
2022-10-11T00:09:55.555Z,18.81
2022-10-11T00:12:22.261Z,18.80
2022-10-11T00:14:48.862Z,18.74
2022-10-11T00:17:15.400Z,18.75
2022-10-11T00:19:41.921Z,18.75
2022-10-11T00:22:08.450Z,18.71
2022-10-11T00:24:35.062Z,18.73
2022-10-11T00:27:01.685Z,18.71
2022-10-11T00:29:28.235Z,18.60
2022-10-11T00:31:54.799Z,18.63
2022-10-11T00:34:21.355Z,18.68
2022-10-11T00:36:48.267Z,18.65
2022-10-11T00:39:14.810Z,18.64
2022-10-11T00:41:41.598Z,18.63
2022-10-11T00:44:13.775Z,18.66
2022-10-11T00:46:45.791Z,18.64
2022-10-11T00:49:19.778Z,18.63
2022-10-11T00:51:53.075Z,18.62
2022-10-11T00:54:25.881Z,18.60
2022-10-11T00:57:06.875Z,18.63
2022-10-11T00:59:39.665Z,18.62
2022-10-11T01:02:08.575Z,18.66
2022-10-11T01:04:35.079Z,18.64
2022-10-11T01:07:02.481Z,18.68
2022-10-11T01:09:29.771Z,18.66
2022-10-11T01:12:00.847Z,18.65
2022-10-11T01:14:46.596Z,18.65
2022-10-11T01:17:30.231Z,18.62
2022-10-11T01:20:14.909Z,18.63
2022-10-11T01:23:26.081Z,18.60
2022-10-11T01:26:26.859Z,18.61
2022-10-11T01:29:29.062Z,18.43
2022-10-11T01:32:25.937Z,18.41
2022-10-11T01:35:07.191Z,18.45
2022-10-11T01:37:43.429Z,18.47
2022-10-11T01:40:22.721Z,18.41
2022-10-11T01:42:50.496Z,18.39
2022-10-11T01:45:19.556Z,18.42
2022-10-11T01:47:46.157Z,18.38
2022-10-11T01:50:42.309Z,18.03
2022-10-11T01:53:26.626Z,18.14
2022-10-11T01:56:14.480Z,18.12
2022-10-11T01:59:15.219Z,18.20
2022-10-11T02:02:03.226Z,18.11
2022-10-11T02:04:32.725Z,18.20
2022-10-11T02:07:07.841Z,18.27
2022-10-11T02:09:44.461Z,18.31
2022-10-11T02:12:15.733Z,18.31
2022-10-11T02:14:48.789Z,18.33
2022-10-11T02:17:23.253Z,18.32
2022-10-11T02:19:56.603Z,18.37
2022-10-11T02:22:33.681Z,18.34
2022-10-11T02:25:08.724Z,18.23
2022-10-11T02:27:40.096Z,18.17
2022-10-11T02:30:08.982Z,18.10
2022-10-11T02:32:41.968Z,18.11
2022-10-11T02:35:10.137Z,18.17
2022-10-11T02:37:41.474Z,18.13
2022-10-11T02:40:35.354Z,18.20
2022-10-11T02:43:11.899Z,18.19
2022-10-11T02:45:48.190Z,18.20
2022-10-11T02:48:15.932Z,18.22
2022-10-11T02:50:43.261Z,18.23
2022-10-11T02:53:10.181Z,18.20
2022-10-11T02:55:37.309Z,18.15
2022-10-11T02:58:03.836Z,18.19
2022-10-11T03:00:30.660Z,18.19
2022-10-11T03:02:57.247Z,18.20
2022-10-11T03:05:23.955Z,18.20
2022-10-11T03:07:50.495Z,18.22
2022-10-11T03:10:19.493Z,18.24
2022-10-11T03:12:46.007Z,18.20
2022-10-11T03:15:12.534Z,18.19
2022-10-11T03:17:39.048Z,18.21
2022-10-11T03:20:06.378Z,18.20
2022-10-11T03:22:32.987Z,18.21
2022-10-11T03:25:03.603Z,18.23
2022-10-11T03:27:31.137Z,18.26
2022-10-11T03:29:57.625Z,18.24
2022-10-11T03:32:24.138Z,18.22
2022-10-11T03:34:50.715Z,18.27
2022-10-11T03:37:17.361Z,18.28
2022-10-11T03:39:43.867Z,18.23
2022-10-11T03:42:10.473Z,18.28
2022-10-11T03:44:37.026Z,18.26
2022-10-11T03:47:03.614Z,18.27
2022-10-11T03:49:30.270Z,18.24
2022-10-11T03:51:56.807Z,18.21
2022-10-11T03:54:23.325Z,18.25
2022-10-11T03:56:49.944Z,18.26
2022-10-11T03:59:16.591Z,18.26
2022-10-11T04:01:43.284Z,18.25
2022-10-11T04:04:10.037Z,18.25
2022-10-11T04:06:36.572Z,18.24
2022-10-11T04:09:03.382Z,18.17
2022-10-11T04:11:29.918Z,18.14
2022-10-11T04:13:56.409Z,18.17
2022-10-11T04:16:23.084Z,18.20
2022-10-11T04:18:49.617Z,18.18
2022-10-11T04:21:16.152Z,18.17
2022-10-11T04:23:42.700Z,18.16
2022-10-11T04:26:09.267Z,18.10
2022-10-11T04:28:36.103Z,18.15
2022-10-11T04:31:02.859Z,18.15
2022-10-11T04:33:29.748Z,18.17
2022-10-11T04:35:57.090Z,18.12
2022-10-11T04:38:24.033Z,18.13
2022-10-11T04:40:50.613Z,18.05
2022-10-11T04:43:18.329Z,18.03
2022-10-11T04:45:45.019Z,18.00
2022-10-11T04:48:11.539Z,18.07
2022-10-11T04:50:38.154Z,18.04
2022-10-11T04:53:07.938Z,18.10
2022-10-11T04:55:34.455Z,18.03
2022-10-11T04:58:01.159Z,18.06
2022-10-11T05:00:27.757Z,18.08
2022-10-11T05:02:54.296Z,18.00
2022-10-11T05:05:20.880Z,18.00
2022-10-11T05:07:47.443Z,18.00
2022-10-11T05:10:14.091Z,17.97
2022-10-11T05:12:40.790Z,17.94
2022-10-11T05:15:08.017Z,17.91
2022-10-11T05:17:34.522Z,17.96
2022-10-11T05:20:01.011Z,17.88
2022-10-11T05:22:27.576Z,17.73
2022-10-11T05:24:54.112Z,17.68
2022-10-11T05:27:20.607Z,17.62
2022-10-11T05:29:47.124Z,17.62
2022-10-11T05:32:13.621Z,17.57
2022-10-11T05:34:40.110Z,17.57
2022-10-11T05:37:06.626Z,17.59
2022-10-11T05:39:33.092Z,17.53
2022-10-11T05:41:59.614Z,17.50
2022-10-11T05:44:26.148Z,17.44
2022-10-11T05:46:52.689Z,17.53
2022-10-11T05:49:19.194Z,17.54
2022-10-11T05:51:45.764Z,17.53
2022-10-11T05:54:12.313Z,17.53
2022-10-11T05:56:38.883Z,17.48
2022-10-11T05:59:05.414Z,17.51
2022-10-11T06:01:32.066Z,17.54
2022-10-11T06:03:58.736Z,17.52
2022-10-11T06:06:25.366Z,17.50
2022-10-11T06:08:52.067Z,17.50
2022-10-11T06:11:22.679Z,17.52
2022-10-11T06:13:49.392Z,17.51
2022-10-11T06:16:16.033Z,17.56
2022-10-11T06:18:42.596Z,17.61
2022-10-11T06:21:09.172Z,17.63
2022-10-11T06:23:35.778Z,17.71
2022-10-11T06:26:06.643Z,17.76
2022-10-11T06:28:35.541Z,17.81
2022-10-11T06:31:05.191Z,17.85
2022-10-11T06:33:31.989Z,17.81
2022-10-11T06:36:09.662Z,17.79
2022-10-11T06:38:39.784Z,17.89
2022-10-11T06:41:10.567Z,17.95
2022-10-11T06:43:37.121Z,17.99
2022-10-11T06:46:04.313Z,18.07
2022-10-11T06:48:31.079Z,18.10
2022-10-11T06:51:01.474Z,18.11
2022-10-11T06:53:28.153Z,18.13
2022-10-11T06:56:02.364Z,18.21
2022-10-11T06:58:29.271Z,18.25
2022-10-11T07:01:10.607Z,18.30
2022-10-11T07:03:37.724Z,18.38
2022-10-11T07:06:08.575Z,18.44
2022-10-11T07:08:36.807Z,18.46
2022-10-11T07:11:09.591Z,18.44
2022-10-11T07:13:37.667Z,18.50
2022-10-11T07:16:08.244Z,18.58
2022-10-11T07:18:35.119Z,18.54
2022-10-11T07:21:07.421Z,18.55
2022-10-11T07:23:34.364Z,18.58
2022-10-11T07:26:01.132Z,18.66
2022-10-11T07:28:28.458Z,18.73
2022-10-11T07:30:55.144Z,18.80
2022-10-11T07:33:21.794Z,18.87
2022-10-11T07:35:49.549Z,18.97
2022-10-11T07:38:16.757Z,19.04
2022-10-11T07:40:45.998Z,19.12
2022-10-11T07:43:13.519Z,19.23
2022-10-11T07:45:41.953Z,19.31
2022-10-11T07:48:09.074Z,19.41
2022-10-11T07:50:36.045Z,19.27
2022-10-11T07:53:03.117Z,19.21
2022-10-11T07:55:33.787Z,19.38
2022-10-11T07:58:00.297Z,19.54
2022-10-11T08:00:26.793Z,19.74
2022-10-11T08:02:53.317Z,19.79
2022-10-11T08:05:19.856Z,19.70
2022-10-11T08:07:46.379Z,19.75
2022-10-11T08:10:12.914Z,19.83
2022-10-11T08:12:39.547Z,19.93
2022-10-11T08:15:06.571Z,19.95
2022-10-11T08:17:33.192Z,20.14
2022-10-11T08:19:59.791Z,20.31
2022-10-11T08:22:26.341Z,20.09
2022-10-11T08:24:52.887Z,20.16
2022-10-11T08:27:21.431Z,20.28
2022-10-11T08:29:48.163Z,20.38
2022-10-11T08:32:14.865Z,20.44
2022-10-11T08:34:41.390Z,20.41
2022-10-11T08:37:08.164Z,20.60
2022-10-11T08:39:34.886Z,20.39
2022-10-11T08:42:23.364Z,20.36
2022-10-11T08:45:10.631Z,20.39
2022-10-11T08:47:44.806Z,20.31
2022-10-11T08:50:19.597Z,20.50
2022-10-11T08:53:10.967Z,20.51
2022-10-11T08:55:52.343Z,20.31
2022-10-11T08:58:25.709Z,20.58
2022-10-11T09:00:56.367Z,20.27
2022-10-11T09:03:37.055Z,20.12
2022-10-11T09:06:25.368Z,20.30
2022-10-11T09:09:16.157Z,20.28
2022-10-11T09:12:04.218Z,20.26
2022-10-11T09:14:38.939Z,20.52
2022-10-11T09:17:33.858Z,20.46
2022-10-11T09:20:24.138Z,20.56
2022-10-11T09:23:13.105Z,20.52
2022-10-11T09:25:54.845Z,20.75
2022-10-11T09:28:35.493Z,20.58
2022-10-11T09:31:02.312Z,20.70
2022-10-11T09:33:35.347Z,20.52
2022-10-11T09:36:16.256Z,20.44
2022-10-11T09:39:06.478Z,20.31
2022-10-11T09:41:51.383Z,20.40
2022-10-11T09:44:28.288Z,20.48
2022-10-11T09:46:56.899Z,20.64
2022-10-11T09:49:37.141Z,20.68
2022-10-11T09:52:11.193Z,20.56
2022-10-11T09:54:40.016Z,20.61
2022-10-11T09:57:21.312Z,20.73
2022-10-11T10:00:18.745Z,20.77
2022-10-11T10:02:54.477Z,20.78
2022-10-11T10:05:32.839Z,20.98
2022-10-11T10:08:04.076Z,20.92
2022-10-11T10:10:31.147Z,20.80
2022-10-11T10:13:03.890Z,21.17
2022-10-11T10:15:47.415Z,20.85
2022-10-11T10:18:22.844Z,20.92
2022-10-11T10:20:58.802Z,21.06
2022-10-11T10:23:32.434Z,21.06
2022-10-11T10:26:17.478Z,21.04
2022-10-11T10:29:03.727Z,21.18
2022-10-11T10:31:49.196Z,21.06
2022-10-11T10:34:46.663Z,21.39
2022-10-11T10:37:26.626Z,21.22
2022-10-11T10:40:13.050Z,21.11
2022-10-11T10:42:40.007Z,20.94
2022-10-11T10:45:18.643Z,21.25
2022-10-11T10:48:10.668Z,21.21
2022-10-11T10:51:01.408Z,21.14
2022-10-11T10:53:38.106Z,21.25
2022-10-11T10:56:12.015Z,21.30
2022-10-11T10:58:54.253Z,21.50
2022-10-11T11:01:30.521Z,21.16
2022-10-11T11:04:24.725Z,21.05
2022-10-11T11:07:11.619Z,21.14
2022-10-11T11:09:52.797Z,21.28
2022-10-11T11:12:22.303Z,21.34
2022-10-11T11:15:04.227Z,21.39
2022-10-11T11:17:45.162Z,21.47
2022-10-11T11:20:23.788Z,21.39
2022-10-11T11:23:32.047Z,21.25
2022-10-11T11:26:20.406Z,21.17
2022-10-11T11:29:22.354Z,21.57
2022-10-11T11:32:30.900Z,21.55
2022-10-11T11:35:09.611Z,21.74
2022-10-11T11:37:41.376Z,21.83
2022-10-11T11:40:16.717Z,21.87
2022-10-11T11:42:51.469Z,22.16
2022-10-11T11:45:30.842Z,22.02
2022-10-11T11:48:13.193Z,22.09
2022-10-11T11:50:46.260Z,21.85
2022-10-11T11:53:18.735Z,21.73
2022-10-11T11:55:50.644Z,21.93
2022-10-11T11:58:50.073Z,21.92
2022-10-11T12:01:47.255Z,22.18
2022-10-11T12:04:31.343Z,21.84
2022-10-11T12:07:17.738Z,22.27
2022-10-11T12:09:49.788Z,22.29
2022-10-11T12:12:37.243Z,22.43
2022-10-11T12:15:19.600Z,22.10
2022-10-11T12:17:54.988Z,22.31
2022-10-11T12:20:26.131Z,22.08
2022-10-11T12:22:56.082Z,22.35
2022-10-11T12:25:22.546Z,22.42
2022-10-11T12:27:53.619Z,22.49
2022-10-11T12:30:45.048Z,22.49
2022-10-11T12:33:15.932Z,22.50
2022-10-11T12:35:54.589Z,22.51
2022-10-11T12:38:28.353Z,22.85
2022-10-11T12:40:57.215Z,23.06
2022-10-11T12:43:55.122Z,23.27
2022-10-11T12:46:30.395Z,23.50
2022-10-11T12:49:26.811Z,23.57
2022-10-11T12:52:17.803Z,23.78
2022-10-11T12:54:44.328Z,23.74
2022-10-11T12:57:32.430Z,23.87
2022-10-11T13:00:28.508Z,24.10
2022-10-11T13:03:05.224Z,24.04
2022-10-11T13:05:48.680Z,24.14
2022-10-11T13:08:32.387Z,24.37
2022-10-11T13:11:03.414Z,24.14
2022-10-11T13:13:40.257Z,23.77
2022-10-11T13:16:13.306Z,23.85
2022-10-11T13:18:45.610Z,24.06
2022-10-11T13:21:25.620Z,23.98
2022-10-11T13:24:00.142Z,23.95
2022-10-11T13:26:30.289Z,24.13
2022-10-11T13:28:58.317Z,24.08
2022-10-11T13:31:25.081Z,24.21
2022-10-11T13:33:55.400Z,24.37
2022-10-11T13:36:26.094Z,24.50
2022-10-11T13:38:59.058Z,24.57
2022-10-11T13:41:31.972Z,24.42
2022-10-11T13:44:00.377Z,24.70
2022-10-11T13:46:30.601Z,24.71
2022-10-11T13:49:31.150Z,24.51
2022-10-11T13:52:03.056Z,24.73
2022-10-11T13:54:55.546Z,24.88
2022-10-11T13:57:31.478Z,25.08
2022-10-11T13:59:58.268Z,25.25
2022-10-11T14:02:29.260Z,25.31
2022-10-11T14:04:55.738Z,25.42
2022-10-11T14:07:33.085Z,25.51
2022-10-11T14:09:59.807Z,25.52
2022-10-11T14:12:40.480Z,25.62
2022-10-11T14:15:33.591Z,25.67
2022-10-11T14:18:01.962Z,25.65
2022-10-11T14:20:38.989Z,25.68
2022-10-11T14:23:07.011Z,25.65
2022-10-11T14:25:34.500Z,25.54
2022-10-11T14:28:01.099Z,25.43
2022-10-11T14:30:28.645Z,25.39
2022-10-11T14:32:59.349Z,25.39
2022-10-11T14:35:29.658Z,25.29
2022-10-11T14:37:56.241Z,25.36
2022-10-11T14:40:25.886Z,25.49
2022-10-11T14:42:52.477Z,25.43
2022-10-11T14:45:19.944Z,25.51
2022-10-11T14:47:46.678Z,25.22
2022-10-11T14:50:27.449Z,25.27
2022-10-11T14:52:54.717Z,25.21
2022-10-11T14:55:21.224Z,25.21
2022-10-11T14:57:55.215Z,25.06
2022-10-11T15:00:26.077Z,25.07
2022-10-11T15:02:53.296Z,24.98
2022-10-11T15:05:21.150Z,24.85
2022-10-11T15:07:48.549Z,24.44
2022-10-11T15:10:22.657Z,24.67
2022-10-11T15:12:53.924Z,24.49
2022-10-11T15:15:23.763Z,24.61
2022-10-11T15:17:53.776Z,24.60
2022-10-11T15:20:27.778Z,24.40
2022-10-11T15:23:00.028Z,24.46
2022-10-11T15:25:27.990Z,24.39
2022-10-11T15:27:54.637Z,24.33
2022-10-11T15:30:25.153Z,24.41
2022-10-11T15:32:52.091Z,24.34
2022-10-11T15:35:19.552Z,24.32
2022-10-11T15:37:46.718Z,24.36
2022-10-11T15:40:23.719Z,24.38
2022-10-11T15:42:51.509Z,24.35
2022-10-11T15:45:19.431Z,24.19
2022-10-11T15:47:46.121Z,24.20
2022-10-11T15:50:12.536Z,24.22
2022-10-11T15:52:39.162Z,23.89
2022-10-11T15:55:05.782Z,24.07
2022-10-11T15:57:32.233Z,24.04
2022-10-11T15:59:58.712Z,23.96
2022-10-11T16:02:25.301Z,23.78
2022-10-11T16:04:53.072Z,23.68
2022-10-11T16:07:19.557Z,23.75
2022-10-11T16:09:46.027Z,23.78
2022-10-11T16:12:12.605Z,23.74
2022-10-11T16:14:42.598Z,23.76
2022-10-11T16:17:11.533Z,23.73
2022-10-11T16:19:38.004Z,23.72
2022-10-11T16:22:04.444Z,23.46
2022-10-11T16:24:30.983Z,23.39
2022-10-11T16:26:57.444Z,23.34
2022-10-11T16:29:24.053Z,23.23
2022-10-11T16:31:50.523Z,23.18
2022-10-11T16:34:17.122Z,23.16
2022-10-11T16:36:43.824Z,22.94
2022-10-11T16:39:16.596Z,23.00
2022-10-11T16:41:43.100Z,22.93
2022-10-11T16:44:14.962Z,22.53
2022-10-11T16:46:42.147Z,21.75
2022-10-11T16:49:08.741Z,21.47
2022-10-11T16:51:35.235Z,20.72
2022-10-11T16:54:01.881Z,20.59
2022-10-11T16:56:28.636Z,20.35
2022-10-11T16:58:55.914Z,20.07
2022-10-11T17:01:22.967Z,20.15
2022-10-11T17:03:50.230Z,20.36
2022-10-11T17:06:17.123Z,20.20
2022-10-11T17:08:43.791Z,20.43
2022-10-11T17:11:10.556Z,20.31
2022-10-11T17:13:37.017Z,20.79
2022-10-11T17:16:04.063Z,20.71
2022-10-11T17:18:32.358Z,20.92
2022-10-11T17:21:07.934Z,21.16
2022-10-11T17:23:35.494Z,21.08
2022-10-11T17:26:10.077Z,21.25
2022-10-11T17:28:38.969Z,21.04
2022-10-11T17:31:05.937Z,20.56
2022-10-11T17:33:33.120Z,20.63
2022-10-11T17:36:00.598Z,20.65
2022-10-11T17:38:27.654Z,20.55
2022-10-11T17:41:01.452Z,20.72
2022-10-11T17:43:28.576Z,20.46
2022-10-11T17:45:59.269Z,20.18
2022-10-11T17:48:28.067Z,20.17
2022-10-11T17:50:55.014Z,20.08
2022-10-11T17:53:21.660Z,19.85
2022-10-11T17:55:48.166Z,19.54
2022-10-11T17:58:14.659Z,19.73
2022-10-11T18:00:41.186Z,19.56
2022-10-11T18:03:07.660Z,19.81
2022-10-11T18:05:39.861Z,19.71
2022-10-11T18:08:07.211Z,20.21
2022-10-11T18:10:35.334Z,20.39
2022-10-11T18:13:06.327Z,20.59
2022-10-11T18:15:33.222Z,20.88
2022-10-11T18:18:00.023Z,21.06
2022-10-11T18:20:26.633Z,21.07
2022-10-11T18:22:53.190Z,20.96
2022-10-11T18:25:20.208Z,21.28
2022-10-11T18:27:46.658Z,21.46
2022-10-11T18:30:19.701Z,21.46
2022-10-11T18:32:46.201Z,21.16
2022-10-11T18:35:12.723Z,21.32
2022-10-11T18:37:39.216Z,21.16
2022-10-11T18:40:06.163Z,20.80
2022-10-11T18:42:32.625Z,20.76
2022-10-11T18:44:59.136Z,20.65
2022-10-11T18:47:25.611Z,20.57
2022-10-11T18:49:52.129Z,20.64
2022-10-11T18:52:18.598Z,20.57
2022-10-11T18:54:45.149Z,20.63
2022-10-11T18:57:11.716Z,20.48
2022-10-11T18:59:38.158Z,20.47
2022-10-11T19:02:04.666Z,20.00
2022-10-11T19:04:31.146Z,19.99
2022-10-11T19:06:57.636Z,20.20
2022-10-11T19:09:24.207Z,20.12
2022-10-11T19:11:52.860Z,20.17
2022-10-11T19:14:22.043Z,20.34
2022-10-11T19:16:50.304Z,20.50
2022-10-11T19:19:19.708Z,20.39
2022-10-11T19:21:46.193Z,20.63
2022-10-11T19:24:12.667Z,20.58
2022-10-11T19:26:40.637Z,20.73
2022-10-11T19:29:08.485Z,20.50
2022-10-11T19:31:40.440Z,20.55
2022-10-11T19:34:06.928Z,20.63
2022-10-11T19:36:36.590Z,20.68
2022-10-11T19:39:05.327Z,20.64
2022-10-11T19:41:32.713Z,20.84
2022-10-11T19:43:59.193Z,20.89
2022-10-11T19:46:44.855Z,20.65
2022-10-11T19:49:14.362Z,20.70
2022-10-11T19:51:41.385Z,20.85
2022-10-11T19:54:11.531Z,20.50
2022-10-11T19:56:38.002Z,20.35
2022-10-11T19:59:04.862Z,20.25
2022-10-11T20:01:31.791Z,19.85
2022-10-11T20:04:07.035Z,19.97
2022-10-11T20:06:38.475Z,20.10
2022-10-11T20:09:28.114Z,19.76
2022-10-11T20:11:53.581Z,19.90
2022-10-11T20:14:20.446Z,19.58
2022-10-11T20:16:50.035Z,19.57
2022-10-11T20:19:17.280Z,19.61
2022-10-11T20:21:44.150Z,19.65
2022-10-11T20:24:10.616Z,19.35
2022-10-11T20:26:37.091Z,19.33
2022-10-11T20:29:03.560Z,19.49
2022-10-11T20:31:32.708Z,19.51
2022-10-11T20:34:01.571Z,19.68
2022-10-11T20:36:29.910Z,19.47
2022-10-11T20:38:58.021Z,19.70
2022-10-11T20:41:27.586Z,19.38
2022-10-11T20:43:56.581Z,19.78
2022-10-11T20:46:26.089Z,19.88
2022-10-11T20:49:01.143Z,20.06
2022-10-11T20:51:30.060Z,20.05
2022-10-11T20:53:56.716Z,19.95
2022-10-11T20:56:23.797Z,20.16
2022-10-11T20:58:59.714Z,20.33
2022-10-11T21:01:31.552Z,20.45
2022-10-11T21:03:59.757Z,20.32
2022-10-11T21:06:27.206Z,20.51
2022-10-11T21:08:58.214Z,20.50
2022-10-11T21:11:26.621Z,20.66
2022-10-11T21:13:58.348Z,20.65
2022-10-11T21:16:28.169Z,20.81
2022-10-11T21:18:57.119Z,20.73
2022-10-11T21:21:24.256Z,20.74
2022-10-11T21:23:55.495Z,20.93
2022-10-11T21:26:22.133Z,20.88
2022-10-11T21:28:49.164Z,20.92
2022-10-11T21:31:18.184Z,20.76
2022-10-11T21:33:44.768Z,20.79
2022-10-11T21:36:17.634Z,20.79
2022-10-11T21:38:44.739Z,20.82
2022-10-11T21:41:17.487Z,20.91
2022-10-11T21:43:44.362Z,20.94
2022-10-11T21:46:16.311Z,20.90
2022-10-11T21:48:42.811Z,20.99
2022-10-11T21:51:15.434Z,20.96
2022-10-11T21:53:41.925Z,21.06
2022-10-11T21:56:08.906Z,21.02
2022-10-11T21:58:35.413Z,20.85
2022-10-11T22:01:01.991Z,20.90
2022-10-11T22:03:28.514Z,20.84
2022-10-11T22:05:54.980Z,20.86
2022-10-11T22:08:22.321Z,20.83
2022-10-11T22:10:54.602Z,20.86
2022-10-11T22:13:21.078Z,20.82
2022-10-11T22:15:47.546Z,20.79
2022-10-11T22:18:14.086Z,20.77
2022-10-11T22:20:40.735Z,20.76
2022-10-11T22:23:07.344Z,20.68
2022-10-11T22:25:39.810Z,20.44
2022-10-11T22:28:06.679Z,20.47
2022-10-11T22:30:33.262Z,20.41
2022-10-11T22:32:59.796Z,20.43
2022-10-11T22:35:26.589Z,20.30
2022-10-11T22:37:53.226Z,20.01
2022-10-11T22:40:20.556Z,20.06
2022-10-11T22:42:47.193Z,19.85
2022-10-11T22:45:13.659Z,19.71
2022-10-11T22:47:40.190Z,19.49
2022-10-11T22:50:06.839Z,19.57
2022-10-11T22:52:33.332Z,19.64
2022-10-11T22:55:03.026Z,19.70
2022-10-11T22:57:29.523Z,19.55
2022-10-11T22:59:58.591Z,19.28
2022-10-11T23:02:25.232Z,19.26
2022-10-11T23:04:54.030Z,19.29
2022-10-11T23:07:20.511Z,18.97
2022-10-11T23:09:48.928Z,18.88
2022-10-11T23:12:15.433Z,18.81
2022-10-11T23:14:42.074Z,18.93
2022-10-11T23:17:08.609Z,18.96
2022-10-11T23:19:35.118Z,18.97
2022-10-11T23:22:01.578Z,18.87
2022-10-11T23:24:28.036Z,18.81
2022-10-11T23:26:54.670Z,18.86
2022-10-11T23:29:21.130Z,18.61
2022-10-11T23:31:47.619Z,18.49
2022-10-11T23:34:14.205Z,18.72
2022-10-11T23:36:41.225Z,18.42
2022-10-11T23:39:07.746Z,18.61
2022-10-11T23:41:34.215Z,18.37
2022-10-11T23:44:00.678Z,18.21
2022-10-11T23:46:27.297Z,18.48
2022-10-11T23:48:53.794Z,18.78
2022-10-11T23:51:20.292Z,18.74
2022-10-11T23:53:46.966Z,18.64
2022-10-11T23:56:15.439Z,18.93
2022-10-11T23:58:41.939Z,19.02
